Arklow Rock — PBZM — position and weather

sailwx.info

Track history (hours):
 
Tides and Currents Weather Stations Pressure Air Temp Water Temp Dewpoint Dewpoint Depression Visibility Wind Speed Wind Dir Waves Ship Positions

Arklow Rock

Last reported at 2014-Nov-16 01:25 UTC. Time now 2014-Nov-24 00:16 UTC.
Position N 50°08' W 003°06'.

Length 90 m; draft 5.1 m.

Type: Cargo ship. MMSI: 246002000.

Date/timePositionNaut miles runAvg speedWind from/ knotsBaromVisibWave heightAir tempDewpointWater temp
2014-Nov-16 01:25N 50°08' W 003°06'910.4
2014-Nov-16 00:34N 50°13' W 002°54'3511.3
2014-Nov-15 21:28N 50°28' W 002°06'1112.4
2014-Nov-15 20:32N 50°34' W 001°50'1312.6
2014-Nov-15 19:30N 50°42' W 001°34'1212.8
2014-Nov-15 18:33N 50°48' W 001°18'7 7.2
2014-Nov-15 17:33N 50°55' W 001°23'0 0.1
2014-Nov-15 16:33N 50°55' W 001°23'0 0.0
2014-Nov-15 15:33N 50°55' W 001°23'0 0.0
2014-Nov-15 14:33N 50°55' W 001°23'0 0.0
2014-Nov-15 13:21N 50°55' W 001°23'0 0.0
2014-Nov-15 12:33N 50°55' W 001°23'0 0.0
2014-Nov-15 11:27N 50°55' W 001°23'0 0.0
2014-Nov-15 10:33N 50°55' W 001°23'0 0.0
2014-Nov-15 09:21N 50°55' W 001°23'0 0.0
2014-Nov-15 07:26N 50°55' W 001°23'0 0.0
2014-Nov-15 06:29N 50°55' W 001°23'0 0.0
2014-Nov-15 05:32N 50°55' W 001°23'0 0.0
2014-Nov-15 04:23N 50°55' W 001°23'0 0.0
2014-Nov-15 03:29N 50°55' W 001°23'0 0.0
2014-Nov-15 02:23N 50°55' W 001°23'0 0.0
2014-Nov-14 18:14N 50°55' W 001°23'0 0.0
2014-Nov-14 16:08N 50°55' W 001°23'0 0.0
2014-Nov-14 14:26N 50°55' W 001°23'0 0.0
2014-Nov-13 14:29N 50°55' W 001°23'4 3.9
2014-Nov-13 13:32N 50°51' W 001°21'1111.8
2014-Nov-13 12:33N 50°45' W 001°06'7 7.2
2014-Nov-13 11:33N 50°39' W 000°59'69 8.4
2014-Nov-13 03:18N 49°35' W 000°18'911.6
2014-Nov-13 02:31N 49°30' W 000°06'1111.6
2014-Nov-13 01:33N 49°26' E 000°10'1111.4
2014-Nov-13 00:33N 49°28' E 000°27'3 0.1
2014-Nov-11 22:23N 49°29' E 000°31'1012.4
2014-Nov-11 21:33N 49°26' E 000°16'1111.2
2014-Nov-11 20:33N 49°28' W 000°01'3 2.5
2014-Nov-11 19:30N 49°28' W 000°05'0 0.0
2014-Nov-11 18:30N 49°28' W 000°05'0 0.0
2014-Nov-11 17:30N 49°28' W 000°05'0 0.0
2014-Nov-11 16:30N 49°28' W 000°05'0 0.0
2014-Nov-11 15:30N 49°28' W 000°05'0 0.0
2014-Nov-11 14:30N 49°28' W 000°05'0 0.0
2014-Nov-11 13:30N 49°28' W 000°05'0 0.3
2014-Nov-11 12:33N 49°28' W 000°05'1010.5
2014-Nov-11 11:33N 49°33' W 000°19'111 7.8
2014-Nov-10 21:25N 50°26' W 002°51'910.7
2014-Nov-10 20:33N 50°23' W 003°05'1110.5
2014-Nov-10 19:33N 50°19' W 003°19'1111.2
2014-Nov-10 18:33N 50°12' W 003°33'82 5.7
2014-Nov-10 04:12N 50°32' W 005°37'6 9.1
2014-Nov-10 03:33N 50°36' W 005°30'10 9.7
2014-Nov-10 02:33N 50°42' W 005°18'  
Track history (hours):
 
Tides and Currents Weather Stations Pressure Air Temp Water Temp Dewpoint Dewpoint Depression Visibility Wind Speed Wind Dir Waves Ship Positions

Arklow Rock

Last reported at 2014-Nov-16 01:25 UTC. Time now 2014-Nov-24 00:16 UTC.
Position N 50°08' W 003°06'.

Length 90 m; draft 5.1 m.

Type: Cargo ship. MMSI: 246002000.

Date/timePositionNaut miles runAvg speedWind from/ knotsBaromVisibWave heightAir tempDewpointWater temp
2014-Nov-16 01:25N 50°08' W 003°06'910.4
2014-Nov-16 00:34N 50°13' W 002°54'3511.3
2014-Nov-15 21:28N 50°28' W 002°06'1112.4
2014-Nov-15 20:32N 50°34' W 001°50'1312.6
2014-Nov-15 19:30N 50°42' W 001°34'1212.8
2014-Nov-15 18:33N 50°48' W 001°18'7 7.2
2014-Nov-15 17:33N 50°55' W 001°23'0 0.1
2014-Nov-15 16:33N 50°55' W 001°23'0 0.0
2014-Nov-15 15:33N 50°55' W 001°23'0 0.0
2014-Nov-15 14:33N 50°55' W 001°23'0 0.0
2014-Nov-15 13:21N 50°55' W 001°23'0 0.0
2014-Nov-15 12:33N 50°55' W 001°23'0 0.0
2014-Nov-15 11:27N 50°55' W 001°23'0 0.0
2014-Nov-15 10:33N 50°55' W 001°23'0 0.0
2014-Nov-15 09:21N 50°55' W 001°23'0 0.0
2014-Nov-15 07:26N 50°55' W 001°23'0 0.0
2014-Nov-15 06:29N 50°55' W 001°23'0 0.0
2014-Nov-15 05:32N 50°55' W 001°23'0 0.0
2014-Nov-15 04:23N 50°55' W 001°23'0 0.0
2014-Nov-15 03:29N 50°55' W 001°23'0 0.0
2014-Nov-15 02:23N 50°55' W 001°23'0 0.0
2014-Nov-14 18:14N 50°55' W 001°23'0 0.0
2014-Nov-14 16:08N 50°55' W 001°23'0 0.0
2014-Nov-14 14:26N 50°55' W 001°23'0 0.0
2014-Nov-13 14:29N 50°55' W 001°23'4 3.9
2014-Nov-13 13:32N 50°51' W 001°21'1111.8
2014-Nov-13 12:33N 50°45' W 001°06'7 7.2
2014-Nov-13 11:33N 50°39' W 000°59'69 8.4
2014-Nov-13 03:18N 49°35' W 000°18'911.6
2014-Nov-13 02:31N 49°30' W 000°06'1111.6
2014-Nov-13 01:33N 49°26' E 000°10'1111.4
2014-Nov-13 00:33N 49°28' E 000°27'3 0.1
2014-Nov-11 22:23N 49°29' E 000°31'1012.4
2014-Nov-11 21:33N 49°26' E 000°16'1111.2
2014-Nov-11 20:33N 49°28' W 000°01'3 2.5
2014-Nov-11 19:30N 49°28' W 000°05'0 0.0
2014-Nov-11 18:30N 49°28' W 000°05'0 0.0
2014-Nov-11 17:30N 49°28' W 000°05'0 0.0
2014-Nov-11 16:30N 49°28' W 000°05'0 0.0
2014-Nov-11 15:30N 49°28' W 000°05'0 0.0
2014-Nov-11 14:30N 49°28' W 000°05'0 0.0
2014-Nov-11 13:30N 49°28' W 000°05'0 0.3
2014-Nov-11 12:33N 49°28' W 000°05'1010.5
2014-Nov-11 11:33N 49°33' W 000°19'111 7.8
2014-Nov-10 21:25N 50°26' W 002°51'910.7
2014-Nov-10 20:33N 50°23' W 003°05'1110.5
2014-Nov-10 19:33N 50°19' W 003°19'1111.2
2014-Nov-10 18:33N 50°12' W 003°33'82 5.7
2014-Nov-10 04:12N 50°32' W 005°37'6 9.1
2014-Nov-10 03:33N 50°36' W 005°30'10 9.7
2014-Nov-10 02:33N 50°42' W 005°18'  

Dump ship's entire track history